Moose, WY (83012)

10:10 AM MDT on June 27, 2017 (GMT -0600)
Moulton Ranches | | Change Station
Active Advisory: Areal Flood Warning

Elev 6378 ft 43.59 °N, 110.75 °W | Updated 15 seconds ago

Partly Cloudy
Partly Cloudy
67.1 °F
Feels Like 67.1 °F
N
0.4
Wind Variable Wind from SW
Gusts 2.5 mph

Today
High -- | Low -- °F
--% Chance of Precip.
Yesterday
High -- | Low -- °F
Precip. -- in
Pressure 30.02 in
Visibility 10.0 miles
Clouds Clear
Dew Point 49 °F
Humidity 52%
Rainfall 0.00 in
Snow Depth Not available.
5:43 AM 9:08 PM
Waxing Crescent, 17% visible
SPECI KJAC 271600Z 00000KT 10SM CLR 18/10 A3002
Pressure 30.02 in
Visibility 10.0 miles
Clouds Clear
Dew Point 49 °F
Humidity 52%
Rainfall 0.00 in
Snow Depth Not available.
5:43 AM 9:08 PM
Waxing Crescent, 17% visible
SPECI KJAC 271600Z 00000KT 10SM CLR 18/10 A3002

Get Your Daily Forecast Email!

Thanks for signing up!

Be on the lookout for a verification email in your inbox.

You'll start receiving severe weather alerts in your inbox..

×

10-Day Weather Forecast

Almanac

Astronomy

Jun. 27, 2017 Rise Set
Actual Time
Civil Twilight
Nautical Twilight
Astronomical Twilight
Moon
Length of Visible Light
Length of Day
Tomorrow will be .
, % of the Moon is Illuminated

Today's Extremes

State Highs State Lows

Community

WunderPhotos

Category 6

Welcome to Category 6. This is the collective home for Weather Underground's featured writeups by Dr. Jeff Masters (right), Bob Henson (left), Chris Burt, and other regular contributors.

Nearby

Air Quality

  Air Quality AQ Index Pollutant
Not available.

Snow Depth

Station Depth Elevation

Earthquake Activity

City Distance Mag. Time & Date
Minimum magnitude displayed is 2.5.

Coastal Water Temperatures

Place Temperature

Stations

Nearby Weather Stations

Station Location Temp. Windchill Dew Point Humidity Wind Precip. Elev Updated Type
                   

Watches & Warnings

Areal Flood Warning
Issued: 12:36 PM MDT Jun. 26, 2017 – National Weather Service

... A Flood Warning for snowmelt remains in effect until 500 PM MDT
Tuesday for southwestern Sublette and east central Lincoln
counties...

At noon Monday, the Green River near La Barge was at 9.7 feet. Flood
stage is 9.0 feet. The river level will continue a slow fall tonight
and Tuesday reaching around 9 feet by early Tuesday evening.
Widespread minor lowland flooding is likely near the river. Area
roads that could be impacted by the flood waters include Lincoln
County Road 318 near La Barge and whalen Road.

Precautionary/preparedness actions...

Flooding is occurring or is imminent. It is important to know where
you are relative to streams, rivers, or creeks which can become
killers during high flows. Campers and hikers should avoid streams
or creeks.


Lat... Lon 4246 11011 4246 11006 4195 11005 4197 11016
      4230 11025


21